sensor_id;sensor_type;location;lat;lon;timestamp;P1;durP1;ratioP1;P2;durP2;ratioP2
20381;SDS011;10350;51.280;12.400;2023-11-19T00:00:01;28.27;;;26.73;;
20381;SDS011;10350;51.280;12.400;2023-11-19T00:02:36;26.73;;;25.25;;
20381;SDS011;10350;51.280;12.400;2023-11-19T00:05:02;28.38;;;26.77;;
20381;SDS011;10350;51.280;12.400;2023-11-19T00:07:28;29.17;;;27.55;;
20381;SDS011;10350;51.280;12.400;2023-11-19T00:09:53;26.60;;;25.13;;
20381;SDS011;10350;51.280;12.400;2023-11-19T00:12:20;25.13;;;23.70;;
20381;SDS011;10350;51.280;12.400;2023-11-19T00:14:47;24.00;;;22.70;;
20381;SDS011;10350;51.280;12.400;2023-11-19T00:17:13;26.50;;;24.90;;
20381;SDS011;10350;51.280;12.400;2023-11-19T00:19:39;26.58;;;25.13;;
20381;SDS011;10350;51.280;12.400;2023-11-19T00:22:07;27.27;;;25.85;;
20381;SDS011;10350;51.280;12.400;2023-11-19T00:24:41;25.73;;;24.33;;
20381;SDS011;10350;51.280;12.400;2023-11-19T00:27:07;24.60;;;23.27;;
20381;SDS011;10350;51.280;12.400;2023-11-19T00:29:33;27.05;;;25.60;;
20381;SDS011;10350;51.280;12.400;2023-11-19T00:31:59;24.88;;;23.58;;
20381;SDS011;10350;51.280;12.400;2023-11-19T00:34:25;25.25;;;23.88;;
20381;SDS011;10350;51.280;12.400;2023-11-19T00:36:50;27.08;;;25.67;;
20381;SDS011;10350;51.280;12.400;2023-11-19T00:39:17;25.73;;;24.33;;
20381;SDS011;10350;51.280;12.400;2023-11-19T00:41:43;24.60;;;23.30;;
20381;SDS011;10350;51.280;12.400;2023-11-19T00:44:12;23.83;;;22.55;;
20381;SDS011;10350;51.280;12.400;2023-11-19T00:46:38;24.58;;;23.30;;
20381;SDS011;10350;51.280;12.400;2023-11-19T00:49:04;26.70;;;25.30;;
20381;SDS011;10350;51.280;12.400;2023-11-19T00:51:30;25.52;;;24.17;;
20381;SDS011;10350;51.280;12.400;2023-11-19T00:53:56;24.67;;;23.35;;
20381;SDS011;10350;51.280;12.400;2023-11-19T00:56:22;23.35;;;22.13;;
20381;SDS011;10350;51.280;12.400;2023-11-19T00:58:49;23.52;;;22.33;;
20381;SDS011;10350;51.280;12.400;2023-11-19T01:01:15;26.58;;;25.17;;
20381;SDS011;10350;51.280;12.400;2023-11-19T01:03:41;22.80;;;21.55;;
20381;SDS011;10350;51.280;12.400;2023-11-19T01:06:09;22.85;;;21.65;;
20381;SDS011;10350;51.280;12.400;2023-11-19T01:08:35;25.35;;;23.60;;
20381;SDS011;10350;51.280;12.400;2023-11-19T01:11:01;26.10;;;24.75;;
20381;SDS011;10350;51.280;12.400;2023-11-19T01:13:27;23.63;;;22.42;;
20381;SDS011;10350;51.280;12.400;2023-11-19T01:15:54;25.02;;;23.73;;
20381;SDS011;10350;51.280;12.400;2023-11-19T01:18:21;23.65;;;22.45;;
20381;SDS011;10350;51.280;12.400;2023-11-19T01:20:47;23.65;;;22.45;;
20381;SDS011;10350;51.280;12.400;2023-11-19T01:23:13;25.83;;;24.52;;
20381;SDS011;10350;51.280;12.400;2023-11-19T01:25:39;25.48;;;24.17;;
20381;SDS011;10350;51.280;12.400;2023-11-19T01:28:08;25.27;;;23.98;;
20381;SDS011;10350;51.280;12.400;2023-11-19T01:30:34;23.10;;;21.77;;
20381;SDS011;10350;51.280;12.400;2023-11-19T01:33:00;24.50;;;23.30;;
20381;SDS011;10350;51.280;12.400;2023-11-19T01:35:26;22.90;;;21.80;;
20381;SDS011;10350;51.280;12.400;2023-11-19T01:37:52;23.38;;;22.08;;
20381;SDS011;10350;51.280;12.400;2023-11-19T01:40:21;22.30;;;21.15;;
20381;SDS011;10350;51.280;12.400;2023-11-19T01:42:47;24.65;;;23.25;;
20381;SDS011;10350;51.280;12.400;2023-11-19T01:45:19;23.90;;;22.70;;
20381;SDS011;10350;51.280;12.400;2023-11-19T01:47:47;25.45;;;24.15;;
20381;SDS011;10350;51.280;12.400;2023-11-19T01:50:13;24.40;;;23.10;;
20381;SDS011;10350;51.280;12.400;2023-11-19T01:52:40;22.27;;;21.10;;
20381;SDS011;10350;51.280;12.400;2023-11-19T01:55:06;24.50;;;23.20;;
20381;SDS011;10350;51.280;12.400;2023-11-19T01:57:36;24.42;;;23.02;;
20381;SDS011;10350;51.280;12.400;2023-11-19T02:00:03;24.73;;;23.42;;
20381;SDS011;10350;51.280;12.400;2023-11-19T02:02:29;24.42;;;23.13;;
20381;SDS011;10350;51.280;12.400;2023-11-19T02:04:55;23.92;;;22.73;;
20381;SDS011;10350;51.280;12.400;2023-11-19T02:07:22;24.73;;;23.42;;
20381;SDS011;10350;51.280;12.400;2023-11-19T02:09:50;24.25;;;22.98;;
20381;SDS011;10350;51.280;12.400;2023-11-19T02:12:19;25.67;;;24.33;;
20381;SDS011;10350;51.280;12.400;2023-11-19T02:14:45;26.73;;;25.33;;
20381;SDS011;10350;51.280;12.400;2023-11-19T02:17:27;24.67;;;23.40;;
20381;SDS011;10350;51.280;12.400;2023-11-19T02:19:53;23.40;;;22.10;;
20381;SDS011;10350;51.280;12.400;2023-11-19T02:22:19;23.05;;;21.85;;
20381;SDS011;10350;51.280;12.400;2023-11-19T02:24:46;22.92;;;21.73;;
20381;SDS011;10350;51.280;12.400;2023-11-19T02:28:13;26.10;;;24.70;;
20381;SDS011;10350;51.280;12.400;2023-11-19T02:30:08;24.70;;;23.40;;
20381;SDS011;10350;51.280;12.400;2023-11-19T02:32:34;25.38;;;24.00;;
20381;SDS011;10350;51.280;12.400;2023-11-19T02:35:01;24.95;;;23.33;;
20381;SDS011;10350;51.280;12.400;2023-11-19T02:37:27;22.63;;;21.35;;
20381;SDS011;10350;51.280;12.400;2023-11-19T02:39:53;24.40;;;23.05;;
20381;SDS011;10350;51.280;12.400;2023-11-19T02:42:25;23.23;;;22.02;;
20381;SDS011;10350;51.280;12.400;2023-11-19T02:44:53;24.10;;;22.65;;
20381;SDS011;10350;51.280;12.400;2023-11-19T02:47:18;26.73;;;25.33;;
20381;SDS011;10350;51.280;12.400;2023-11-19T02:49:46;24.50;;;23.20;;
20381;SDS011;10350;51.280;12.400;2023-11-19T02:52:12;24.48;;;23.17;;
20381;SDS011;10350;51.280;12.400;2023-11-19T02:54:39;24.13;;;22.88;;
20381;SDS011;10350;51.280;12.400;2023-11-19T02:57:06;24.70;;;23.40;;
20381;SDS011;10350;51.280;12.400;2023-11-19T02:59:35;26.73;;;25.30;;
20381;SDS011;10350;51.280;12.400;2023-11-19T03:02:04;25.98;;;24.65;;
20381;SDS011;10350;51.280;12.400;2023-11-19T03:04:39;24.70;;;23.38;;
20381;SDS011;10350;51.280;12.400;2023-11-19T03:07:06;25.88;;;24.55;;
20381;SDS011;10350;51.280;12.400;2023-11-19T03:09:34;24.67;;;23.35;;
20381;SDS011;10350;51.280;12.400;2023-11-19T03:12:01;24.65;;;23.33;;
20381;SDS011;10350;51.280;12.400;2023-11-19T03:14:27;23.98;;;22.73;;
20381;SDS011;10350;51.280;12.400;2023-11-19T03:16:53;27.48;;;26.02;;
20381;SDS011;10350;51.280;12.400;2023-11-19T03:19:19;25.95;;;24.55;;
20381;SDS011;10350;51.280;12.400;2023-11-19T03:21:45;25.90;;;24.52;;
20381;SDS011;10350;51.280;12.400;2023-11-19T03:24:13;28.00;;;26.52;;
20381;SDS011;10350;51.280;12.400;2023-11-19T03:26:40;34.75;;;32.92;;
20381;SDS011;10350;51.280;12.400;2023-11-19T03:29:07;36.80;;;34.73;;
20381;SDS011;10350;51.280;12.400;2023-11-19T03:31:33;37.78;;;35.70;;
20381;SDS011;10350;51.280;12.400;2023-11-19T03:33:59;36.78;;;34.80;;
20381;SDS011;10350;51.280;12.400;2023-11-19T03:36:25;38.42;;;36.30;;
20381;SDS011;10350;51.280;12.400;2023-11-19T03:38:57;38.65;;;36.63;;
20381;SDS011;10350;51.280;12.400;2023-11-19T03:41:23;38.25;;;36.28;;
20381;SDS011;10350;51.280;12.400;2023-11-19T03:43:49;38.30;;;36.22;;
20381;SDS011;10350;51.280;12.400;2023-11-19T03:46:16;38.50;;;36.47;;
20381;SDS011;10350;51.280;12.400;2023-11-19T03:48:42;40.67;;;38.55;;
20381;SDS011;10350;51.280;12.400;2023-11-19T03:51:08;40.97;;;38.80;;
20381;SDS011;10350;51.280;12.400;2023-11-19T03:53:35;38.92;;;36.90;;
20381;SDS011;10350;51.280;12.400;2023-11-19T03:56:01;39.22;;;37.13;;
20381;SDS011;10350;51.280;12.400;2023-11-19T03:58:27;42.63;;;40.42;;
20381;SDS011;10350;51.280;12.400;2023-11-19T04:00:53;40.28;;;38.22;;
20381;SDS011;10350;51.280;12.400;2023-11-19T04:03:19;41.60;;;39.40;;
20381;SDS011;10350;51.280;12.400;2023-11-19T04:05:45;39.45;;;37.30;;
20381;SDS011;10350;51.280;12.400;2023-11-19T04:08:11;43.17;;;40.75;;
20381;SDS011;10350;51.280;12.400;2023-11-19T04:10:37;38.70;;;36.60;;
20381;SDS011;10350;51.280;12.400;2023-11-19T04:13:03;36.95;;;35.03;;
20381;SDS011;10350;51.280;12.400;2023-11-19T04:15:29;36.30;;;34.35;;
20381;SDS011;10350;51.280;12.400;2023-11-19T04:17:55;36.70;;;34.75;;
20381;SDS011;10350;51.280;12.400;2023-11-19T04:20:21;33.75;;;32.00;;
20381;SDS011;10350;51.280;12.400;2023-11-19T04:22:47;33.13;;;31.30;;
20381;SDS011;10350;51.280;12.400;2023-11-19T04:25:13;33.92;;;32.20;;
20381;SDS011;10350;51.280;12.400;2023-11-19T04:27:40;33.50;;;31.80;;
20381;SDS011;10350;51.280;12.400;2023-11-19T04:30:06;29.38;;;27.88;;
20381;SDS011;10350;51.280;12.400;2023-11-19T04:32:35;28.45;;;26.92;;
20381;SDS011;10350;51.280;12.400;2023-11-19T04:35:01;30.30;;;28.77;;
20381;SDS011;10350;51.280;12.400;2023-11-19T04:37:27;27.50;;;26.08;;
20381;SDS011;10350;51.280;12.400;2023-11-19T04:39:52;26.95;;;25.55;;
20381;SDS011;10350;51.280;12.400;2023-11-19T04:42:18;26.27;;;24.92;;
20381;SDS011;10350;51.280;12.400;2023-11-19T04:44:44;27.15;;;25.75;;
20381;SDS011;10350;51.280;12.400;2023-11-19T04:47:10;27.98;;;26.58;;
20381;SDS011;10350;51.280;12.400;2023-11-19T04:49:39;27.88;;;26.48;;
20381;SDS011;10350;51.280;12.400;2023-11-19T04:52:07;25.48;;;24.15;;
20381;SDS011;10350;51.280;12.400;2023-11-19T04:54:33;26.35;;;25.05;;
20381;SDS011;10350;51.280;12.400;2023-11-19T04:56:59;25.70;;;24.40;;
20381;SDS011;10350;51.280;12.400;2023-11-19T04:59:25;25.52;;;24.23;;
20381;SDS011;10350;51.280;12.400;2023-11-19T05:01:52;26.75;;;25.42;;
20381;SDS011;10350;51.280;12.400;2023-11-19T05:04:18;27.42;;;25.92;;
20381;SDS011;10350;51.280;12.400;2023-11-19T05:06:44;27.10;;;25.70;;
20381;SDS011;10350;51.280;12.400;2023-11-19T05:09:10;28.48;;;27.08;;
20381;SDS011;10350;51.280;12.400;2023-11-19T05:11:38;26.50;;;25.15;;
20381;SDS011;10350;51.280;12.400;2023-11-19T05:14:04;26.75;;;25.42;;
20381;SDS011;10350;51.280;12.400;2023-11-19T05:16:30;27.02;;;25.67;;
20381;SDS011;10350;51.280;12.400;2023-11-19T05:18:56;27.00;;;25.67;;
20381;SDS011;10350;51.280;12.400;2023-11-19T05:21:22;27.80;;;26.40;;
20381;SDS011;10350;51.280;12.400;2023-11-19T05:23:49;26.88;;;25.58;;
20381;SDS011;10350;51.280;12.400;2023-11-19T05:26:21;27.35;;;25.98;;
20381;SDS011;10350;51.280;12.400;2023-11-19T05:28:47;25.85;;;24.55;;
20381;SDS011;10350;51.280;12.400;2023-11-19T05:31:14;27.00;;;25.67;;
20381;SDS011;10350;51.280;12.400;2023-11-19T05:33:40;27.15;;;25.73;;
20381;SDS011;10350;51.280;12.400;2023-11-19T05:36:06;28.10;;;26.73;;
20381;SDS011;10350;51.280;12.400;2023-11-19T05:38:33;28.30;;;26.83;;
20381;SDS011;10350;51.280;12.400;2023-11-19T05:40:59;29.75;;;27.85;;
20381;SDS011;10350;51.280;12.400;2023-11-19T05:43:25;27.10;;;25.75;;
20381;SDS011;10350;51.280;12.400;2023-11-19T05:45:50;27.55;;;26.15;;
20381;SDS011;10350;51.280;12.400;2023-11-19T05:48:16;27.67;;;26.17;;
20381;SDS011;10350;51.280;12.400;2023-11-19T05:50:42;27.35;;;25.95;;
20381;SDS011;10350;51.280;12.400;2023-11-19T05:53:09;26.52;;;25.23;;
20381;SDS011;10350;51.280;12.400;2023-11-19T05:55:38;26.35;;;25.05;;
20381;SDS011;10350;51.280;12.400;2023-11-19T05:58:27;29.05;;;27.60;;
20381;SDS011;10350;51.280;12.400;2023-11-19T06:00:56;29.63;;;28.10;;
20381;SDS011;10350;51.280;12.400;2023-11-19T06:03:22;27.90;;;26.50;;
20381;SDS011;10350;51.280;12.400;2023-11-19T06:05:48;28.80;;;26.70;;
20381;SDS011;10350;51.280;12.400;2023-11-19T06:08:15;28.83;;;27.35;;
20381;SDS011;10350;51.280;12.400;2023-11-19T06:10:41;28.75;;;27.30;;
20381;SDS011;10350;51.280;12.400;2023-11-19T06:13:07;29.58;;;28.02;;
20381;SDS011;10350;51.280;12.400;2023-11-19T06:15:35;27.90;;;26.50;;
20381;SDS011;10350;51.280;12.400;2023-11-19T06:18:01;28.70;;;27.30;;
20381;SDS011;10350;51.280;12.400;2023-11-19T06:20:29;28.20;;;26.80;;
20381;SDS011;10350;51.280;12.400;2023-11-19T06:22:55;28.80;;;27.30;;
20381;SDS011;10350;51.280;12.400;2023-11-19T06:25:21;29.05;;;27.60;;
20381;SDS011;10350;51.280;12.400;2023-11-19T06:27:49;28.67;;;26.90;;
20381;SDS011;10350;51.280;12.400;2023-11-19T06:30:15;27.92;;;26.48;;
20381;SDS011;10350;51.280;12.400;2023-11-19T06:32:41;28.98;;;27.55;;
20381;SDS011;10350;51.280;12.400;2023-11-19T06:35:07;26.85;;;25.52;;
20381;SDS011;10350;51.280;12.400;2023-11-19T06:37:34;27.23;;;25.83;;
20381;SDS011;10350;51.280;12.400;2023-11-19T06:40:00;28.27;;;26.88;;
20381;SDS011;10350;51.280;12.400;2023-11-19T06:42:26;30.55;;;29.05;;
20381;SDS011;10350;51.280;12.400;2023-11-19T06:44:52;29.05;;;27.58;;
20381;SDS011;10350;51.280;12.400;2023-11-19T06:47:18;28.75;;;27.27;;
20381;SDS011;10350;51.280;12.400;2023-11-19T06:49:44;29.90;;;28.40;;
20381;SDS011;10350;51.280;12.400;2023-11-19T06:52:10;28.35;;;26.95;;
20381;SDS011;10350;51.280;12.400;2023-11-19T06:54:37;30.20;;;28.70;;
20381;SDS011;10350;51.280;12.400;2023-11-19T06:57:03;28.38;;;26.98;;
20381;SDS011;10350;51.280;12.400;2023-11-19T06:59:30;29.40;;;27.90;;
20381;SDS011;10350;51.280;12.400;2023-11-19T07:01:56;28.30;;;26.70;;
20381;SDS011;10350;51.280;12.400;2023-11-19T07:04:22;29.27;;;27.83;;
20381;SDS011;10350;51.280;12.400;2023-11-19T07:06:48;28.77;;;27.35;;
20381;SDS011;10350;51.280;12.400;2023-11-19T07:09:14;28.55;;;27.13;;
20381;SDS011;10350;51.280;12.400;2023-11-19T07:11:40;29.50;;;28.00;;
20381;SDS011;10350;51.280;12.400;2023-11-19T07:14:07;29.33;;;27.83;;
20381;SDS011;10350;51.280;12.400;2023-11-19T07:16:33;30.25;;;28.65;;
20381;SDS011;10350;51.280;12.400;2023-11-19T07:19:00;29.60;;;28.10;;
20381;SDS011;10350;51.280;12.400;2023-11-19T07:21:26;29.00;;;27.52;;
20381;SDS011;10350;51.280;12.400;2023-11-19T07:23:56;27.75;;;26.33;;
20381;SDS011;10350;51.280;12.400;2023-11-19T07:26:22;30.20;;;28.58;;
20381;SDS011;10350;51.280;12.400;2023-11-19T07:28:48;30.45;;;28.95;;
20381;SDS011;10350;51.280;12.400;2023-11-19T07:31:14;29.33;;;27.83;;
20381;SDS011;10350;51.280;12.400;2023-11-19T07:33:40;30.58;;;29.08;;
20381;SDS011;10350;51.280;12.400;2023-11-19T07:36:10;30.92;;;29.33;;
20381;SDS011;10350;51.280;12.400;2023-11-19T07:38:36;30.83;;;29.27;;
20381;SDS011;10350;51.280;12.400;2023-11-19T07:41:03;30.33;;;28.77;;
20381;SDS011;10350;51.280;12.400;2023-11-19T07:43:30;31.05;;;29.45;;
20381;SDS011;10350;51.280;12.400;2023-11-19T07:45:56;31.92;;;30.30;;
20381;SDS011;10350;51.280;12.400;2023-11-19T07:48:24;29.63;;;28.08;;
20381;SDS011;10350;51.280;12.400;2023-11-19T07:50:50;32.15;;;30.25;;
20381;SDS011;10350;51.280;12.400;2023-11-19T07:53:16;31.75;;;30.08;;
20381;SDS011;10350;51.280;12.400;2023-11-19T07:55:42;35.20;;;33.40;;
20381;SDS011;10350;51.280;12.400;2023-11-19T07:58:09;33.75;;;32.00;;
20381;SDS011;10350;51.280;12.400;2023-11-19T08:00:42;34.03;;;32.13;;
20381;SDS011;10350;51.280;12.400;2023-11-19T08:03:08;32.58;;;30.90;;
20381;SDS011;10350;51.280;12.400;2023-11-19T08:05:42;36.83;;;34.90;;
20381;SDS011;10350;51.280;12.400;2023-11-19T08:08:08;36.03;;;34.13;;
20381;SDS011;10350;51.280;12.400;2023-11-19T08:10:33;34.15;;;32.42;;
20381;SDS011;10350;51.280;12.400;2023-11-19T08:12:59;35.60;;;33.72;;
20381;SDS011;10350;51.280;12.400;2023-11-19T08:15:26;34.78;;;33.03;;
20381;SDS011;10350;51.280;12.400;2023-11-19T08:17:52;36.85;;;34.97;;
20381;SDS011;10350;51.280;12.400;2023-11-19T08:20:18;35.50;;;33.63;;
20381;SDS011;10350;51.280;12.400;2023-11-19T08:22:46;36.38;;;34.47;;
20381;SDS011;10350;51.280;12.400;2023-11-19T08:25:16;36.22;;;34.33;;
20381;SDS011;10350;51.280;12.400;2023-11-19T08:27:42;37.03;;;35.10;;
20381;SDS011;10350;51.280;12.400;2023-11-19T08:30:08;37.70;;;35.72;;
20381;SDS011;10350;51.280;12.400;2023-11-19T08:32:36;35.13;;;33.20;;
20381;SDS011;10350;51.280;12.400;2023-11-19T08:35:05;36.80;;;34.92;;
20381;SDS011;10350;51.280;12.400;2023-11-19T08:37:31;36.45;;;34.55;;
20381;SDS011;10350;51.280;12.400;2023-11-19T08:39:57;39.22;;;37.22;;
20381;SDS011;10350;51.280;12.400;2023-11-19T08:42:23;39.35;;;37.25;;
20381;SDS011;10350;51.280;12.400;2023-11-19T08:44:49;37.17;;;35.10;;
20381;SDS011;10350;51.280;12.400;2023-11-19T08:47:16;38.17;;;36.08;;
20381;SDS011;10350;51.280;12.400;2023-11-19T08:49:47;36.15;;;34.30;;
20381;SDS011;10350;51.280;12.400;2023-11-19T08:52:15;35.88;;;33.90;;
20381;SDS011;10350;51.280;12.400;2023-11-19T08:54:43;38.20;;;36.10;;
20381;SDS011;10350;51.280;12.400;2023-11-19T08:57:09;34.72;;;32.92;;
20381;SDS011;10350;51.280;12.400;2023-11-19T08:59:35;33.03;;;31.30;;
20381;SDS011;10350;51.280;12.400;2023-11-19T09:02:05;36.67;;;34.60;;
20381;SDS011;10350;51.280;12.400;2023-11-19T09:04:32;38.42;;;36.42;;
20381;SDS011;10350;51.280;12.400;2023-11-19T09:06:58;36.22;;;34.30;;
20381;SDS011;10350;51.280;12.400;2023-11-19T09:09:24;41.80;;;39.63;;
20381;SDS011;10350;51.280;12.400;2023-11-19T09:11:50;49.08;;;46.53;;
20381;SDS011;10350;51.280;12.400;2023-11-19T09:14:16;58.40;;;55.33;;
20381;SDS011;10350;51.280;12.400;2023-11-19T09:16:43;53.95;;;51.15;;
20381;SDS011;10350;51.280;12.400;2023-11-19T09:19:09;49.78;;;47.17;;
20381;SDS011;10350;51.280;12.400;2023-11-19T09:21:35;44.13;;;41.83;;
20381;SDS011;10350;51.280;12.400;2023-11-19T09:26:29;44.70;;;42.38;;
20381;SDS011;10350;51.280;12.400;2023-11-19T09:28:55;42.20;;;39.95;;
20381;SDS011;10350;51.280;12.400;2023-11-19T09:31:21;45.47;;;42.88;;
20381;SDS011;10350;51.280;12.400;2023-11-19T09:33:50;47.20;;;44.63;;
20381;SDS011;10350;51.280;12.400;2023-11-19T09:36:20;46.45;;;44.05;;
20381;SDS011;10350;51.280;12.400;2023-11-19T09:38:48;46.38;;;43.88;;
20381;SDS011;10350;51.280;12.400;2023-11-19T09:41:13;44.40;;;42.13;;
20381;SDS011;10350;51.280;12.400;2023-11-19T09:43:40;44.08;;;41.78;;
20381;SDS011;10350;51.280;12.400;2023-11-19T09:46:06;45.65;;;43.25;;
20381;SDS011;10350;51.280;12.400;2023-11-19T09:48:36;43.40;;;41.10;;
20381;SDS011;10350;51.280;12.400;2023-11-19T09:51:03;47.33;;;44.83;;
20381;SDS011;10350;51.280;12.400;2023-11-19T09:53:30;47.92;;;45.03;;
20381;SDS011;10350;51.280;12.400;2023-11-19T09:55:56;47.13;;;44.60;;
20381;SDS011;10350;51.280;12.400;2023-11-19T09:58:24;45.97;;;43.47;;
20381;SDS011;10350;51.280;12.400;2023-11-19T10:00:50;46.05;;;43.65;;
20381;SDS011;10350;51.280;12.400;2023-11-19T10:03:17;45.92;;;43.50;;
20381;SDS011;10350;51.280;12.400;2023-11-19T10:05:43;46.30;;;43.90;;
20381;SDS011;10350;51.280;12.400;2023-11-19T10:08:09;45.00;;;42.60;;
20381;SDS011;10350;51.280;12.400;2023-11-19T10:10:36;46.45;;;44.05;;
20381;SDS011;10350;51.280;12.400;2023-11-19T10:13:02;44.58;;;42.28;;
20381;SDS011;10350;51.280;12.400;2023-11-19T10:15:28;46.95;;;44.45;;
20381;SDS011;10350;51.280;12.400;2023-11-19T10:17:57;45.13;;;42.53;;
20381;SDS011;10350;51.280;12.400;2023-11-19T10:20:23;45.33;;;42.92;;
20381;SDS011;10350;51.280;12.400;2023-11-19T10:22:52;46.03;;;43.55;;
20381;SDS011;10350;51.280;12.400;2023-11-19T10:25:21;47.80;;;45.25;;
20381;SDS011;10350;51.280;12.400;2023-11-19T10:27:48;47.58;;;44.97;;
20381;SDS011;10350;51.280;12.400;2023-11-19T10:30:17;47.30;;;44.90;;
20381;SDS011;10350;51.280;12.400;2023-11-19T10:32:44;46.25;;;43.55;;
20381;SDS011;10350;51.280;12.400;2023-11-19T10:35:10;43.53;;;41.22;;
20381;SDS011;10350;51.280;12.400;2023-11-19T10:37:38;41.70;;;39.30;;
20381;SDS011;10350;51.280;12.400;2023-11-19T10:40:04;45.28;;;42.92;;
20381;SDS011;10350;51.280;12.400;2023-11-19T10:42:31;43.35;;;41.08;;
20381;SDS011;10350;51.280;12.400;2023-11-19T10:44:56;44.97;;;42.28;;
20381;SDS011;10350;51.280;12.400;2023-11-19T10:47:23;43.88;;;41.63;;
20381;SDS011;10350;51.280;12.400;2023-11-19T10:49:49;44.58;;;42.25;;
20381;SDS011;10350;51.280;12.400;2023-11-19T10:52:17;46.22;;;43.85;;
20381;SDS011;10350;51.280;12.400;2023-11-19T10:54:49;48.28;;;45.78;;
20381;SDS011;10350;51.280;12.400;2023-11-19T10:57:19;50.90;;;48.13;;
20381;SDS011;10350;51.280;12.400;2023-11-19T10:59:46;49.28;;;46.65;;
20381;SDS011;10350;51.280;12.400;2023-11-19T11:02:13;52.47;;;49.10;;
20381;SDS011;10350;51.280;12.400;2023-11-19T11:04:41;55.08;;;51.00;;
20381;SDS011;10350;51.280;12.400;2023-11-19T11:07:08;47.83;;;44.92;;
20381;SDS011;10350;51.280;12.400;2023-11-19T11:09:34;70.50;;;66.43;;
20381;SDS011;10350;51.280;12.400;2023-11-19T11:12:01;48.88;;;46.03;;
20381;SDS011;10350;51.280;12.400;2023-11-19T11:14:28;48.50;;;45.83;;
20381;SDS011;10350;51.280;12.400;2023-11-19T11:16:54;51.75;;;48.83;;
20381;SDS011;10350;51.280;12.400;2023-11-19T11:19:21;51.07;;;48.23;;
20381;SDS011;10350;51.280;12.400;2023-11-19T11:21:52;56.78;;;53.35;;
20381;SDS011;10350;51.280;12.400;2023-11-19T11:26:53;51.85;;;48.85;;
20381;SDS011;10350;51.280;12.400;2023-11-19T11:32:07;48.80;;;45.97;;
20381;SDS011;10350;51.280;12.400;2023-11-19T11:34:44;45.05;;;42.55;;
20381;SDS011;10350;51.280;12.400;2023-11-19T11:47:25;42.22;;;39.53;;
20381;SDS011;10350;51.280;12.400;2023-11-19T11:49:51;39.75;;;37.20;;
20381;SDS011;10350;51.280;12.400;2023-11-19T11:52:17;45.78;;;42.50;;
20381;SDS011;10350;51.280;12.400;2023-11-19T11:54:44;47.38;;;44.38;;
20381;SDS011;10350;51.280;12.400;2023-11-19T11:57:13;51.47;;;48.50;;
20381;SDS011;10350;51.280;12.400;2023-11-19T11:59:46;46.17;;;43.35;;
20381;SDS011;10350;51.280;12.400;2023-11-19T12:02:13;44.83;;;42.15;;
20381;SDS011;10350;51.280;12.400;2023-11-19T12:04:41;46.58;;;43.80;;
20381;SDS011;10350;51.280;12.400;2023-11-19T12:07:17;46.33;;;43.67;;
20381;SDS011;10350;51.280;12.400;2023-11-19T12:09:47;46.42;;;43.17;;
20381;SDS011;10350;51.280;12.400;2023-11-19T12:12:25;45.50;;;42.83;;
20381;SDS011;10350;51.280;12.400;2023-11-19T12:15:06;42.72;;;40.10;;
20381;SDS011;10350;51.280;12.400;2023-11-19T12:17:48;43.05;;;40.45;;
20381;SDS011;10350;51.280;12.400;2023-11-19T12:20:14;41.08;;;38.50;;
20381;SDS011;10350;51.280;12.400;2023-11-19T12:22:41;45.33;;;42.63;;
20381;SDS011;10350;51.280;12.400;2023-11-19T12:25:08;41.75;;;38.95;;
20381;SDS011;10350;51.280;12.400;2023-11-19T12:27:35;42.92;;;39.78;;
20381;SDS011;10350;51.280;12.400;2023-11-19T12:30:02;43.10;;;40.00;;
20381;SDS011;10350;51.280;12.400;2023-11-19T12:34:55;38.50;;;35.92;;
20381;SDS011;10350;51.280;12.400;2023-11-19T12:37:21;39.90;;;37.60;;
20381;SDS011;10350;51.280;12.400;2023-11-19T12:39:49;42.92;;;40.30;;
20381;SDS011;10350;51.280;12.400;2023-11-19T12:42:15;40.85;;;37.95;;
20381;SDS011;10350;51.280;12.400;2023-11-19T12:44:53;43.60;;;41.08;;
20381;SDS011;10350;51.280;12.400;2023-11-19T12:47:21;39.97;;;37.75;;
20381;SDS011;10350;51.280;12.400;2023-11-19T12:49:56;40.88;;;38.22;;
20381;SDS011;10350;51.280;12.400;2023-11-19T12:52:23;44.63;;;41.72;;
20381;SDS011;10350;51.280;12.400;2023-11-19T12:54:49;45.60;;;42.83;;
20381;SDS011;10350;51.280;12.400;2023-11-19T12:57:16;47.55;;;44.47;;
20381;SDS011;10350;51.280;12.400;2023-11-19T12:59:55;47.58;;;44.60;;
20381;SDS011;10350;51.280;12.400;2023-11-19T13:02:44;40.67;;;38.20;;
20381;SDS011;10350;51.280;12.400;2023-11-19T13:05:20;40.83;;;38.42;;
20381;SDS011;10350;51.280;12.400;2023-11-19T13:07:46;41.67;;;39.15;;
20381;SDS011;10350;51.280;12.400;2023-11-19T13:10:17;41.97;;;39.28;;
20381;SDS011;10350;51.280;12.400;2023-11-19T13:12:43;38.80;;;36.45;;
20381;SDS011;10350;51.280;12.400;2023-11-19T13:15:24;39.40;;;37.05;;
20381;SDS011;10350;51.280;12.400;2023-11-19T13:17:51;40.03;;;37.47;;
20381;SDS011;10350;51.280;12.400;2023-11-19T13:20:18;38.95;;;36.03;;
20381;SDS011;10350;51.280;12.400;2023-11-19T13:22:57;36.75;;;34.40;;
20381;SDS011;10350;51.280;12.400;2023-11-19T13:25:23;37.80;;;35.38;;
20381;SDS011;10350;51.280;12.400;2023-11-19T13:27:49;36.28;;;34.17;;
20381;SDS011;10350;51.280;12.400;2023-11-19T13:30:15;34.97;;;32.65;;
20381;SDS011;10350;51.280;12.400;2023-11-19T13:32:41;38.42;;;36.15;;
20381;SDS011;10350;51.280;12.400;2023-11-19T13:35:09;36.45;;;33.42;;
20381;SDS011;10350;51.280;12.400;2023-11-19T13:37:35;37.92;;;35.63;;
20381;SDS011;10350;51.280;12.400;2023-11-19T13:40:01;38.72;;;36.33;;
20381;SDS011;10350;51.280;12.400;2023-11-19T13:42:27;37.55;;;35.15;;
20381;SDS011;10350;51.280;12.400;2023-11-19T13:44:53;39.30;;;36.83;;
20381;SDS011;10350;51.280;12.400;2023-11-19T13:47:21;39.90;;;37.50;;
20381;SDS011;10350;51.280;12.400;2023-11-19T13:49:47;39.25;;;36.65;;
20381;SDS011;10350;51.280;12.400;2023-11-19T13:52:13;41.17;;;38.40;;
20381;SDS011;10350;51.280;12.400;2023-11-19T13:54:39;36.30;;;34.03;;
20381;SDS011;10350;51.280;12.400;2023-11-19T13:57:06;38.33;;;35.70;;
20381;SDS011;10350;51.280;12.400;2023-11-19T13:59:31;36.85;;;34.42;;
20381;SDS011;10350;51.280;12.400;2023-11-19T14:01:58;38.65;;;35.83;;
20381;SDS011;10350;51.280;12.400;2023-11-19T14:04:24;36.38;;;34.05;;
20381;SDS011;10350;51.280;12.400;2023-11-19T14:06:50;37.30;;;34.92;;
20381;SDS011;10350;51.280;12.400;2023-11-19T14:09:16;38.95;;;36.53;;
20381;SDS011;10350;51.280;12.400;2023-11-19T14:14:16;38.08;;;35.90;;
20381;SDS011;10350;51.280;12.400;2023-11-19T14:16:42;36.97;;;34.65;;
20381;SDS011;10350;51.280;12.400;2023-11-19T14:19:08;38.97;;;35.67;;
20381;SDS011;10350;51.280;12.400;2023-11-19T14:21:35;38.50;;;36.35;;
20381;SDS011;10350;51.280;12.400;2023-11-19T14:24:01;36.35;;;34.17;;
20381;SDS011;10350;51.280;12.400;2023-11-19T14:26:26;37.20;;;35.03;;
20381;SDS011;10350;51.280;12.400;2023-11-19T14:28:53;36.65;;;34.28;;
20381;SDS011;10350;51.280;12.400;2023-11-19T14:31:19;37.88;;;35.63;;